createdAt,value
2018-03-31T00:00:19.300Z,6.28
2018-03-31T00:02:46.266Z,6.31
2018-03-31T00:05:13.296Z,6.29
2018-03-31T00:07:40.345Z,6.34
2018-03-31T00:10:07.285Z,6.36
2018-03-31T00:12:34.238Z,6.38
2018-03-31T00:15:01.284Z,6.42
2018-03-31T00:17:28.227Z,6.44
2018-03-31T00:19:55.198Z,6.51
2018-03-31T00:22:26.031Z,6.52
2018-03-31T00:24:53.011Z,6.54
2018-03-31T00:27:19.958Z,6.53
2018-03-31T00:29:46.936Z,6.53
2018-03-31T00:32:13.881Z,6.56
2018-03-31T00:34:40.890Z,6.56
2018-03-31T00:37:07.895Z,6.54
2018-03-31T00:39:34.930Z,6.53
2018-03-31T00:42:01.878Z,6.54
2018-03-31T00:44:28.845Z,6.54
2018-03-31T00:46:55.791Z,6.53
2018-03-31T00:49:22.787Z,6.50
2018-03-31T00:51:49.736Z,6.52
2018-03-31T00:54:16.718Z,6.51
2018-03-31T00:56:43.756Z,6.47
2018-03-31T00:59:10.728Z,6.44
2018-03-31T01:01:37.662Z,6.40
2018-03-31T01:04:04.635Z,6.37
2018-03-31T01:06:31.580Z,6.36
2018-03-31T01:08:58.544Z,6.35
2018-03-31T01:11:25.490Z,6.32
2018-03-31T01:13:52.459Z,6.29
2018-03-31T01:16:19.400Z,6.32
2018-03-31T01:18:46.359Z,6.30
2018-03-31T01:21:13.319Z,6.26
2018-03-31T01:23:40.260Z,6.25
2018-03-31T01:26:07.232Z,6.24
2018-03-31T01:28:34.179Z,6.23
2018-03-31T01:31:01.308Z,6.23
2018-03-31T01:33:28.344Z,6.23
2018-03-31T01:35:55.312Z,6.25
2018-03-31T01:38:22.465Z,6.26
2018-03-31T01:40:49.436Z,6.28
2018-03-31T01:43:16.375Z,6.26
2018-03-31T01:45:43.341Z,6.26
2018-03-31T01:48:10.283Z,6.27
2018-03-31T01:50:37.249Z,6.27
2018-03-31T01:53:04.223Z,6.28
2018-03-31T01:55:31.271Z,6.24
2018-03-31T01:57:58.211Z,6.20
2018-03-31T02:00:25.171Z,6.19
2018-03-31T02:02:52.123Z,6.16
2018-03-31T02:05:19.152Z,6.11
2018-03-31T02:07:46.107Z,6.09
2018-03-31T02:10:13.074Z,6.08
2018-03-31T02:12:40.064Z,6.07
2018-03-31T02:15:07.031Z,6.09
2018-03-31T02:17:33.967Z,6.10
2018-03-31T02:20:00.948Z,6.13
2018-03-31T02:22:27.987Z,6.18
2018-03-31T02:24:54.968Z,6.21
2018-03-31T02:27:21.982Z,6.19
2018-03-31T02:29:48.967Z,6.20
2018-03-31T02:32:15.970Z,6.19
2018-03-31T02:34:42.925Z,6.18
2018-03-31T02:37:09.935Z,6.15
2018-03-31T02:39:36.900Z,6.15
2018-03-31T02:42:03.876Z,6.15
2018-03-31T02:44:30.872Z,6.11
2018-03-31T02:46:57.845Z,6.10
2018-03-31T02:49:24.778Z,6.08
2018-03-31T02:51:51.755Z,6.12
2018-03-31T02:54:18.708Z,6.07
2018-03-31T02:56:45.690Z,6.06
2018-03-31T02:59:12.698Z,6.03
2018-03-31T03:01:39.716Z,6.02
2018-03-31T03:04:06.661Z,6.01
2018-03-31T03:06:33.648Z,5.99
2018-03-31T03:09:00.610Z,5.98
2018-03-31T03:11:27.603Z,5.97
2018-03-31T03:13:54.543Z,5.96
2018-03-31T03:16:21.507Z,5.92
2018-03-31T03:18:48.459Z,5.93
2018-03-31T03:21:15.430Z,5.94
2018-03-31T03:23:42.436Z,5.98
2018-03-31T03:26:09.372Z,5.98
2018-03-31T03:28:36.335Z,5.98
2018-03-31T03:31:03.743Z,6.01
2018-03-31T03:33:30.730Z,6.00
2018-03-31T03:35:57.676Z,6.04
2018-03-31T03:38:24.683Z,6.10
2018-03-31T03:40:51.630Z,6.13
2018-03-31T03:43:18.592Z,6.12
2018-03-31T03:45:45.577Z,6.11
2018-03-31T03:48:12.562Z,6.14
2018-03-31T03:50:39.508Z,6.15
2018-03-31T03:53:06.475Z,6.15
2018-03-31T03:55:33.419Z,6.15
2018-03-31T03:58:00.379Z,6.13
2018-03-31T04:00:27.335Z,6.06
2018-03-31T04:02:54.379Z,6.01
2018-03-31T04:05:21.318Z,5.96
2018-03-31T04:07:48.283Z,5.92
2018-03-31T04:10:15.227Z,5.82
2018-03-31T04:12:42.218Z,5.78
2018-03-31T04:15:09.158Z,5.74
2018-03-31T04:17:36.132Z,5.74
2018-03-31T04:20:03.189Z,5.70
2018-03-31T04:22:30.211Z,5.71
2018-03-31T04:24:57.212Z,5.71
2018-03-31T04:27:24.179Z,5.69
2018-03-31T04:29:51.128Z,5.65
2018-03-31T04:32:18.071Z,5.58
2018-03-31T04:34:45.038Z,5.52
2018-03-31T04:37:11.983Z,5.53
2018-03-31T04:39:38.987Z,5.54
2018-03-31T04:42:05.931Z,5.53
2018-03-31T04:44:32.895Z,5.51
2018-03-31T04:46:59.970Z,5.45
2018-03-31T04:49:26.939Z,5.37
2018-03-31T04:51:53.883Z,5.33
2018-03-31T04:54:20.848Z,5.24
2018-03-31T04:56:47.919Z,5.19
2018-03-31T04:59:14.887Z,5.16
2018-03-31T05:01:41.837Z,5.14
2018-03-31T05:04:08.803Z,5.12
2018-03-31T05:06:35.783Z,5.16
2018-03-31T05:09:02.850Z,5.16
2018-03-31T05:11:29.807Z,5.21
2018-03-31T05:13:56.791Z,5.27
2018-03-31T05:16:23.735Z,5.27
2018-03-31T05:18:50.729Z,5.24
2018-03-31T05:21:17.676Z,5.25
2018-03-31T05:23:44.643Z,5.22
2018-03-31T05:26:11.587Z,5.22
2018-03-31T05:28:38.598Z,5.29
2018-03-31T05:31:05.539Z,5.29
2018-03-31T05:33:32.520Z,5.29
2018-03-31T05:35:59.476Z,5.31
2018-03-31T05:38:26.418Z,5.35
2018-03-31T05:40:53.396Z,5.33
2018-03-31T05:43:20.355Z,5.34
2018-03-31T05:45:47.361Z,5.34
2018-03-31T05:48:14.319Z,5.36
2018-03-31T05:50:41.288Z,5.40
2018-03-31T05:53:08.239Z,5.42
2018-03-31T05:55:35.203Z,5.53
2018-03-31T05:58:02.149Z,5.61
2018-03-31T06:00:29.117Z,5.63
2018-03-31T06:02:56.090Z,5.69
2018-03-31T06:05:23.113Z,5.75
2018-03-31T06:07:50.070Z,5.84
2018-03-31T06:10:17.052Z,5.90
2018-03-31T06:12:44.028Z,5.95
2018-03-31T06:15:11.104Z,6.02
2018-03-31T06:17:38.072Z,6.07
2018-03-31T06:20:05.031Z,6.17
2018-03-31T06:22:32.152Z,6.28
2018-03-31T06:24:59.183Z,6.38
2018-03-31T06:27:26.135Z,6.44
2018-03-31T06:29:53.099Z,6.44
2018-03-31T06:32:20.059Z,6.52
2018-03-31T06:34:47.046Z,6.54
2018-03-31T06:37:13.979Z,6.64
2018-03-31T06:39:40.935Z,6.69
2018-03-31T06:42:07.904Z,6.81
2018-03-31T06:44:35.900Z,6.93
2018-03-31T06:47:02.959Z,7.05
2018-03-31T06:49:29.949Z,7.21
2018-03-31T06:51:56.926Z,7.26
2018-03-31T06:54:23.920Z,7.32
2018-03-31T06:56:50.945Z,7.42
2018-03-31T06:59:17.938Z,7.41
2018-03-31T07:01:44.905Z,7.56
2018-03-31T07:04:11.931Z,7.61
2018-03-31T07:06:38.996Z,7.67
2018-03-31T07:09:06.023Z,7.65
2018-03-31T07:11:32.988Z,7.64
2018-03-31T07:14:00.000Z,7.64
2018-03-31T07:16:27.084Z,7.70
2018-03-31T07:18:54.029Z,7.78
2018-03-31T07:21:21.003Z,7.83
2018-03-31T07:23:47.958Z,7.92
2018-03-31T07:26:15.089Z,8.05
2018-03-31T07:28:42.048Z,8.15
2018-03-31T07:31:09.021Z,8.28
2018-03-31T07:33:35.964Z,8.29
2018-03-31T07:36:02.984Z,8.22
2018-03-31T07:38:30.009Z,8.26
2018-03-31T07:40:56.987Z,8.28
2018-03-31T07:43:23.987Z,8.34
2018-03-31T07:45:51.010Z,8.40
2018-03-31T07:48:17.964Z,8.46
2018-03-31T07:50:45.046Z,8.57
2018-03-31T07:53:11.991Z,8.64
2018-03-31T07:55:38.936Z,8.72
2018-03-31T07:58:06.002Z,8.69
2018-03-31T08:00:33.136Z,8.69
2018-03-31T08:03:00.104Z,8.70
2018-03-31T08:05:27.048Z,8.79
2018-03-31T08:07:54.029Z,8.83
2018-03-31T08:10:20.972Z,8.93
2018-03-31T08:12:47.951Z,9.08
2018-03-31T08:15:14.887Z,9.06
2018-03-31T08:17:41.955Z,9.15
2018-03-31T08:20:08.983Z,9.32
2018-03-31T08:22:35.968Z,9.28
2018-03-31T08:25:02.998Z,9.30
2018-03-31T08:27:29.986Z,9.59
2018-03-31T08:29:56.943Z,9.65
2018-03-31T08:32:23.911Z,9.71
2018-03-31T08:34:50.876Z,9.86
2018-03-31T08:37:17.851Z,9.75
2018-03-31T08:39:44.801Z,9.76
2018-03-31T08:42:11.785Z,9.91
2018-03-31T08:44:38.728Z,9.81
2018-03-31T08:47:05.708Z,9.94
2018-03-31T08:49:32.683Z,9.91
2018-03-31T08:51:59.659Z,10.03
2018-03-31T08:54:26.607Z,10.26
2018-03-31T08:56:53.598Z,10.26
2018-03-31T08:59:20.569Z,10.68
2018-03-31T09:01:47.540Z,10.62
2018-03-31T09:04:14.511Z,10.77
2018-03-31T09:06:41.475Z,11.06
2018-03-31T09:09:08.458Z,11.31
2018-03-31T09:11:35.419Z,11.66
2018-03-31T09:14:02.389Z,11.76
2018-03-31T09:16:29.347Z,11.55
2018-03-31T09:18:56.324Z,11.71
2018-03-31T09:21:23.356Z,11.62
2018-03-31T09:23:50.363Z,11.92
2018-03-31T09:26:17.334Z,12.23
2018-03-31T09:28:44.324Z,12.36
2018-03-31T09:31:11.279Z,12.49
2018-03-31T09:33:38.285Z,12.58
2018-03-31T09:36:05.247Z,12.75
2018-03-31T09:38:32.287Z,12.77
2018-03-31T09:40:59.260Z,12.95
2018-03-31T09:43:26.263Z,13.15
2018-03-31T09:45:53.207Z,13.02
2018-03-31T09:48:20.272Z,12.78
2018-03-31T09:50:47.219Z,12.98
2018-03-31T09:53:14.184Z,13.27
2018-03-31T09:55:41.132Z,13.43
2018-03-31T09:58:08.131Z,13.53
2018-03-31T10:00:36.089Z,13.25
2018-03-31T10:03:03.087Z,13.41
2018-03-31T10:05:30.062Z,13.73
2018-03-31T10:07:57.051Z,13.89
2018-03-31T10:10:24.047Z,13.99
2018-03-31T10:12:51.025Z,13.40
2018-03-31T10:15:18.019Z,14.03
2018-03-31T10:17:44.991Z,14.18
2018-03-31T10:20:11.958Z,14.32
2018-03-31T10:22:38.993Z,14.16
2018-03-31T10:25:05.932Z,13.76
2018-03-31T10:27:32.887Z,13.72
2018-03-31T10:29:59.876Z,13.56
2018-03-31T10:32:26.820Z,13.47
2018-03-31T10:34:53.793Z,13.09
2018-03-31T10:37:20.748Z,13.18
2018-03-31T10:39:47.748Z,13.05
2018-03-31T10:42:14.720Z,13.12
2018-03-31T10:44:41.682Z,13.38
2018-03-31T10:47:08.838Z,13.27
2018-03-31T10:49:35.864Z,13.23
2018-03-31T10:52:02.833Z,12.95
2018-03-31T10:54:29.817Z,12.64
2018-03-31T10:56:56.792Z,12.59
2018-03-31T10:59:23.867Z,12.73
2018-03-31T11:01:50.811Z,12.72
2018-03-31T11:04:17.808Z,12.99
2018-03-31T11:06:44.795Z,13.23
2018-03-31T11:09:11.851Z,13.23
2018-03-31T11:11:38.905Z,13.24
2018-03-31T11:14:06.050Z,13.51
2018-03-31T11:16:33.043Z,13.85
2018-03-31T11:18:59.999Z,14.32
2018-03-31T11:21:27.000Z,14.70
2018-03-31T11:23:54.093Z,14.52
2018-03-31T11:26:21.069Z,14.46
2018-03-31T11:28:48.013Z,14.52
2018-03-31T11:31:14.999Z,14.35
2018-03-31T11:33:41.939Z,14.32
2018-03-31T11:36:08.975Z,14.49
2018-03-31T11:38:35.918Z,14.68
2018-03-31T11:41:02.921Z,14.55
2018-03-31T11:43:29.883Z,14.40
2018-03-31T11:45:56.908Z,14.66
2018-03-31T11:48:23.908Z,15.12
2018-03-31T11:50:50.956Z,15.03
2018-03-31T11:53:17.933Z,15.08
2018-03-31T11:55:44.915Z,15.77
2018-03-31T11:58:11.997Z,15.54
2018-03-31T12:00:38.960Z,15.95
2018-03-31T12:03:05.923Z,16.69
2018-03-31T12:05:32.927Z,16.46
2018-03-31T12:07:59.866Z,16.53
2018-03-31T12:10:26.847Z,16.78
2018-03-31T12:12:53.836Z,17.41
2018-03-31T12:15:20.808Z,17.27
2018-03-31T12:17:47.752Z,17.82
2018-03-31T12:20:14.720Z,17.28
2018-03-31T12:22:41.801Z,17.61
2018-03-31T12:25:08.783Z,17.53
2018-03-31T12:27:35.764Z,17.53
2018-03-31T12:30:02.769Z,17.68
2018-03-31T12:32:29.757Z,17.57
2018-03-31T12:34:56.718Z,17.71
2018-03-31T12:37:23.696Z,17.55
2018-03-31T12:39:50.662Z,16.85
2018-03-31T12:42:17.645Z,16.53
2018-03-31T12:44:44.678Z,16.45
2018-03-31T12:47:11.640Z,16.61
2018-03-31T12:49:38.594Z,16.20
2018-03-31T12:52:05.564Z,16.00
2018-03-31T12:54:32.532Z,16.13
2018-03-31T12:56:59.528Z,15.60
2018-03-31T12:59:26.491Z,15.82
2018-03-31T13:01:53.496Z,15.84
2018-03-31T13:04:20.490Z,15.91
2018-03-31T13:06:47.472Z,16.08
2018-03-31T13:09:14.436Z,15.35
2018-03-31T13:11:41.422Z,15.49
2018-03-31T13:14:08.403Z,15.68
2018-03-31T13:16:35.383Z,16.45
2018-03-31T13:19:02.379Z,16.21
2018-03-31T13:21:29.417Z,16.39
2018-03-31T13:23:56.391Z,16.87
2018-03-31T13:26:23.360Z,17.05
2018-03-31T13:28:50.364Z,16.99
2018-03-31T13:31:17.303Z,18.17
2018-03-31T13:33:44.295Z,19.48
2018-03-31T13:36:11.253Z,19.96
2018-03-31T13:38:38.227Z,19.31
2018-03-31T13:41:05.209Z,18.75
2018-03-31T13:43:32.200Z,19.01
2018-03-31T13:45:59.187Z,19.07
2018-03-31T13:48:26.155Z,19.06
2018-03-31T13:50:53.108Z,18.37
2018-03-31T13:53:20.086Z,18.35
2018-03-31T13:55:47.055Z,18.39
2018-03-31T13:58:14.023Z,19.58
2018-03-31T14:00:40.992Z,20.43
2018-03-31T14:03:08.029Z,20.08
2018-03-31T14:05:35.022Z,21.26
2018-03-31T14:08:01.994Z,21.37
2018-03-31T14:10:28.943Z,20.42
2018-03-31T14:12:55.945Z,20.06
2018-03-31T14:15:22.979Z,20.28
2018-03-31T14:17:50.012Z,19.88
2018-03-31T14:20:17.032Z,19.80
2018-03-31T14:22:43.972Z,21.85
2018-03-31T14:25:10.942Z,21.92
2018-03-31T14:27:37.903Z,20.82
2018-03-31T14:30:05.062Z,19.52
2018-03-31T14:32:32.011Z,18.54
2018-03-31T14:34:58.998Z,19.26
2018-03-31T14:37:25.947Z,18.74
2018-03-31T14:39:52.924Z,18.22
2018-03-31T14:42:19.895Z,17.57
2018-03-31T14:44:46.862Z,17.08
2018-03-31T14:47:13.824Z,17.00
2018-03-31T14:49:40.800Z,17.39
2018-03-31T14:52:07.751Z,18.62
2018-03-31T14:54:34.726Z,18.95
2018-03-31T14:57:01.687Z,18.42
2018-03-31T14:59:28.715Z,17.62
2018-03-31T15:01:55.659Z,17.63
2018-03-31T15:04:22.631Z,17.41
2018-03-31T15:06:49.639Z,17.84
2018-03-31T15:09:16.640Z,17.73
2018-03-31T15:11:43.628Z,17.07
2018-03-31T15:14:11.624Z,16.82
2018-03-31T15:16:38.643Z,16.59
2018-03-31T15:19:05.661Z,16.71
2018-03-31T15:21:32.657Z,16.85
2018-03-31T15:23:59.707Z,16.86
2018-03-31T15:26:26.703Z,16.83
2018-03-31T15:28:53.667Z,16.77
2018-03-31T15:31:20.696Z,16.60
2018-03-31T15:33:47.804Z,17.09
2018-03-31T15:36:14.794Z,17.52
2018-03-31T15:38:41.749Z,17.16
2018-03-31T15:41:08.738Z,16.29
2018-03-31T15:43:35.698Z,17.57
2018-03-31T15:46:02.672Z,16.80
2018-03-31T15:48:29.619Z,16.88
2018-03-31T15:50:56.594Z,16.70
2018-03-31T15:53:23.552Z,16.86
2018-03-31T15:55:50.532Z,16.58
2018-03-31T15:58:17.512Z,17.31
2018-03-31T16:00:44.487Z,18.15
2018-03-31T16:03:11.431Z,17.55
2018-03-31T16:05:38.407Z,16.76
2018-03-31T16:08:05.419Z,15.75
2018-03-31T16:10:32.392Z,16.15
2018-03-31T16:12:59.367Z,17.68
2018-03-31T16:15:26.340Z,19.46
2018-03-31T16:17:53.307Z,19.83
2018-03-31T16:20:20.367Z,17.87
2018-03-31T16:22:47.342Z,16.06
2018-03-31T16:25:15.370Z,15.14
2018-03-31T16:27:42.347Z,14.48
2018-03-31T16:30:09.402Z,14.15
2018-03-31T16:32:36.384Z,13.70
2018-03-31T16:35:03.491Z,13.54
2018-03-31T16:37:30.467Z,13.22
2018-03-31T16:39:57.462Z,13.17
2018-03-31T16:42:24.579Z,13.02
2018-03-31T16:44:51.527Z,12.74
2018-03-31T16:47:18.505Z,12.46
2018-03-31T16:49:45.532Z,12.24
2018-03-31T16:52:12.612Z,13.05
2018-03-31T16:54:39.563Z,15.05
2018-03-31T16:57:06.551Z,14.99
2018-03-31T16:59:33.497Z,14.31
2018-03-31T17:02:00.471Z,13.48
2018-03-31T17:04:27.436Z,12.87
2018-03-31T17:06:54.403Z,12.60
2018-03-31T17:09:21.361Z,12.51
2018-03-31T17:11:48.487Z,12.40
2018-03-31T17:14:15.456Z,12.33
2018-03-31T17:16:42.480Z,12.16
2018-03-31T17:19:09.391Z,11.87
2018-03-31T17:21:36.360Z,11.71
2018-03-31T17:24:03.309Z,11.36
2018-03-31T17:26:30.304Z,11.27
2018-03-31T17:28:57.260Z,11.11
2018-03-31T17:31:24.212Z,10.92
2018-03-31T17:33:51.281Z,10.66
2018-03-31T17:36:18.229Z,10.34
2018-03-31T17:38:45.221Z,10.08
2018-03-31T17:41:12.172Z,9.87
2018-03-31T17:43:39.141Z,9.71
2018-03-31T17:46:06.084Z,9.57
2018-03-31T17:48:33.056Z,9.42
2018-03-31T17:51:00.022Z,9.26
2018-03-31T17:53:27.057Z,9.09
2018-03-31T17:55:53.974Z,8.94
2018-03-31T17:58:20.964Z,8.75
2018-03-31T18:00:47.936Z,8.65
2018-03-31T18:03:14.898Z,8.57
2018-03-31T18:05:41.860Z,8.55
2018-03-31T18:08:08.864Z,8.46
2018-03-31T18:10:35.807Z,8.43
2018-03-31T18:13:02.775Z,8.33
2018-03-31T18:15:29.723Z,8.14
2018-03-31T18:17:56.695Z,8.07
2018-03-31T18:20:23.644Z,8.07
2018-03-31T18:22:50.615Z,8.09
2018-03-31T18:25:17.604Z,8.00
2018-03-31T18:27:44.579Z,7.92
2018-03-31T18:30:11.524Z,7.87
2018-03-31T18:32:38.533Z,7.74
2018-03-31T18:35:05.485Z,7.62
2018-03-31T18:37:32.466Z,7.63
2018-03-31T18:39:59.429Z,7.61
2018-03-31T18:42:26.370Z,7.57
2018-03-31T18:44:53.351Z,7.62
2018-03-31T18:47:20.339Z,7.66
2018-03-31T18:49:47.304Z,7.59
2018-03-31T18:52:14.244Z,7.45
2018-03-31T18:54:41.216Z,7.37
2018-03-31T18:57:08.166Z,7.24
2018-03-31T18:59:35.136Z,7.13
2018-03-31T19:02:02.092Z,7.03
2018-03-31T19:04:29.076Z,6.93
2018-03-31T19:06:56.029Z,6.90
2018-03-31T19:09:23.088Z,6.82
2018-03-31T19:11:50.049Z,6.70
2018-03-31T19:14:18.085Z,6.60
2018-03-31T19:16:50.754Z,6.58
2018-03-31T19:19:17.725Z,6.48
2018-03-31T19:21:44.688Z,6.39
2018-03-31T19:24:11.851Z,6.30
2018-03-31T19:26:38.862Z,6.29
2018-03-31T19:29:05.833Z,6.32
2018-03-31T19:31:33.763Z,6.25
2018-03-31T19:34:00.736Z,6.15
2018-03-31T19:36:27.695Z,6.09
2018-03-31T19:38:54.699Z,6.04
2018-03-31T19:41:21.647Z,6.04
2018-03-31T19:43:50.608Z,6.09
2018-03-31T19:46:17.579Z,6.16
2018-03-31T19:48:44.540Z,6.29
2018-03-31T19:51:11.512Z,6.30
2018-03-31T19:53:38.638Z,6.25
2018-03-31T19:56:05.624Z,6.19
2018-03-31T19:58:32.637Z,6.16
2018-03-31T20:00:59.684Z,6.11
2018-03-31T20:03:26.643Z,6.10
2018-03-31T20:05:53.608Z,6.03
2018-03-31T20:08:20.648Z,6.02
2018-03-31T20:10:47.647Z,5.90
2018-03-31T20:13:14.595Z,5.86
2018-03-31T20:15:41.576Z,5.78
2018-03-31T20:18:08.512Z,5.76
2018-03-31T20:20:35.495Z,5.73
2018-03-31T20:23:02.485Z,5.64
2018-03-31T20:25:29.428Z,5.59
2018-03-31T20:27:56.379Z,5.57
2018-03-31T20:30:23.435Z,5.53
2018-03-31T20:32:50.387Z,5.39
2018-03-31T20:35:17.347Z,5.36
2018-03-31T20:37:44.293Z,5.34
2018-03-31T20:40:11.288Z,5.30
2018-03-31T20:42:38.308Z,5.34
2018-03-31T20:45:05.282Z,5.29
2018-03-31T20:47:32.247Z,5.30
2018-03-31T20:49:59.235Z,5.40
2018-03-31T20:52:26.230Z,5.54
2018-03-31T20:54:53.200Z,5.70
2018-03-31T20:57:20.180Z,5.81
2018-03-31T20:59:47.126Z,5.91
2018-03-31T21:02:14.108Z,6.06
2018-03-31T21:04:41.068Z,6.21
2018-03-31T21:07:08.044Z,6.31
2018-03-31T21:09:34.987Z,6.40
2018-03-31T21:12:02.769Z,6.48
2018-03-31T21:14:29.723Z,6.53
2018-03-31T21:16:56.692Z,6.54
2018-03-31T21:19:23.636Z,6.54
2018-03-31T21:21:50.603Z,6.52
2018-03-31T21:24:17.572Z,6.47
2018-03-31T21:26:44.543Z,6.39
2018-03-31T21:29:11.487Z,6.28
2018-03-31T21:31:38.452Z,6.19
2018-03-31T21:34:05.409Z,6.21
2018-03-31T21:36:32.378Z,6.20
2018-03-31T21:38:59.327Z,6.31
2018-03-31T21:41:26.296Z,6.35
2018-03-31T21:43:53.259Z,6.31
2018-03-31T21:46:20.236Z,6.21
2018-03-31T21:48:47.204Z,6.08
2018-03-31T21:51:14.178Z,6.01
2018-03-31T21:53:41.164Z,5.94
2018-03-31T21:56:08.109Z,5.85
2018-03-31T21:58:35.081Z,5.81
2018-03-31T22:01:02.033Z,5.82
2018-03-31T22:03:29.018Z,5.88
2018-03-31T22:05:56.028Z,5.91
2018-03-31T22:08:22.994Z,5.92
2018-03-31T22:10:49.992Z,5.98
2018-03-31T22:13:22.627Z,6.05
2018-03-31T22:15:49.597Z,6.08
2018-03-31T22:18:16.600Z,6.16
2018-03-31T22:20:45.531Z,6.32
2018-03-31T22:23:12.508Z,6.43
2018-03-31T22:25:39.476Z,6.56
2018-03-31T22:28:06.440Z,6.62
2018-03-31T22:30:34.327Z,6.71
2018-03-31T22:33:01.292Z,6.85
2018-03-31T22:35:30.329Z,6.87
2018-03-31T22:37:57.305Z,6.90
2018-03-31T22:40:24.256Z,6.91
2018-03-31T22:42:51.241Z,6.89
2018-03-31T22:45:18.199Z,6.82
2018-03-31T22:47:45.162Z,6.76
2018-03-31T22:50:12.104Z,6.76
2018-03-31T22:52:39.120Z,6.81
2018-03-31T22:55:06.088Z,6.84
2018-03-31T22:57:33.072Z,6.86
2018-03-31T23:00:00.051Z,6.87
2018-03-31T23:02:27.035Z,6.93
2018-03-31T23:04:54.092Z,7.02
2018-03-31T23:07:21.041Z,7.04
2018-03-31T23:09:48.093Z,7.03
2018-03-31T23:12:15.061Z,7.07
2018-03-31T23:14:42.032Z,7.14
2018-03-31T23:17:09.012Z,7.08
2018-03-31T23:19:35.984Z,7.06
2018-03-31T23:22:02.945Z,7.01
2018-03-31T23:24:29.943Z,6.92
2018-03-31T23:26:56.878Z,6.97
2018-03-31T23:29:23.963Z,6.99
2018-03-31T23:31:50.990Z,7.00
2018-03-31T23:34:17.971Z,7.05
2018-03-31T23:36:44.952Z,7.15
2018-03-31T23:39:11.919Z,7.18
2018-03-31T23:41:38.860Z,7.28
2018-03-31T23:44:05.819Z,7.36
2018-03-31T23:46:32.760Z,7.39
2018-03-31T23:48:59.723Z,7.43
2018-03-31T23:51:26.672Z,7.38
2018-03-31T23:53:53.643Z,7.35
2018-03-31T23:56:20.659Z,7.35
2018-03-31T23:58:47.752Z,7.31
